createdAt,value
2018-03-29T00:01:32.309Z,25.30
2018-03-29T00:06:35.859Z,17.57
2018-03-29T00:11:38.895Z,35.23
2018-03-29T00:16:42.243Z,22.47
2018-03-29T00:21:45.470Z,24.27
2018-03-29T00:26:48.366Z,33.73
2018-03-29T00:31:52.217Z,16.93
2018-03-29T00:36:55.353Z,18.73
2018-03-29T00:41:58.202Z,23.67
2018-03-29T00:47:02.378Z,29.07
2018-03-29T00:52:05.483Z,19.63
2018-03-29T00:57:09.049Z,26.67
2018-03-29T01:02:12.493Z,20.40
2018-03-29T01:07:15.565Z,32.30
2018-03-29T01:12:18.702Z,23.80
2018-03-29T01:17:21.719Z,24.80
2018-03-29T01:22:24.665Z,31.23
2018-03-29T01:27:27.738Z,14.17
2018-03-29T01:32:38.632Z,19.83
2018-03-29T01:37:43.619Z,22.80
2018-03-29T01:42:47.614Z,24.13
2018-03-29T01:47:51.346Z,25.87
2018-03-29T01:57:57.598Z,39.57
2018-03-29T02:03:01.939Z,23.47
2018-03-29T02:08:05.046Z,24.33
2018-03-29T02:13:08.033Z,16.20
2018-03-29T02:18:11.463Z,23.63
2018-03-29T02:23:14.849Z,20.90
2018-03-29T02:28:17.905Z,21.63
2018-03-29T02:33:21.305Z,28.13
2018-03-29T02:38:24.114Z,25.97
2018-03-29T02:43:27.282Z,30.23
2018-03-29T02:48:30.315Z,23.90
2018-03-29T02:53:33.634Z,14.30
2018-03-29T02:58:36.551Z,15.13
2018-03-29T03:03:39.972Z,25.13
2018-03-29T03:08:43.150Z,31.43
2018-03-29T03:13:46.118Z,27.83
2018-03-29T03:18:49.436Z,18.47
2018-03-29T03:23:52.731Z,29.40
2018-03-29T03:28:56.789Z,29.33
2018-03-29T03:34:00.630Z,22.67
2018-03-29T03:39:05.111Z,17.27
2018-03-29T03:44:08.189Z,30.90
2018-03-29T03:49:11.318Z,33.77
2018-03-29T03:54:14.366Z,29.23
2018-03-29T03:59:17.461Z,21.83
2018-03-29T04:04:20.537Z,31.03
2018-03-29T04:09:24.481Z,34.53
2018-03-29T04:14:27.393Z,23.67
2018-03-29T04:19:30.566Z,35.70
2018-03-29T04:24:34.824Z,39.57
2018-03-29T04:29:37.978Z,27.47
2018-03-29T04:34:41.054Z,33.27
2018-03-29T04:39:44.578Z,32.87
2018-03-29T04:44:47.753Z,50.63
2018-03-29T04:49:51.278Z,28.70
2018-03-29T04:54:54.237Z,21.40
2018-03-29T04:59:57.154Z,34.90
2018-03-29T05:05:00.240Z,30.50
2018-03-29T05:10:04.107Z,24.27
2018-03-29T05:15:07.057Z,16.33
2018-03-29T05:20:10.131Z,31.33
2018-03-29T05:25:13.036Z,35.53
2018-03-29T05:30:16.594Z,33.20
2018-03-29T05:35:20.210Z,33.50
2018-03-29T05:40:23.113Z,24.30
2018-03-29T05:45:40.690Z,27.60
2018-03-29T05:50:43.952Z,24.77
2018-03-29T05:55:46.809Z,26.97
2018-03-29T06:00:49.634Z,23.07
2018-03-29T06:05:52.521Z,38.50
2018-03-29T06:10:55.642Z,26.43
2018-03-29T06:16:02.967Z,28.73
2018-03-29T06:21:06.167Z,26.10
2018-03-29T06:26:09.320Z,28.30
2018-03-29T06:31:12.125Z,22.20
2018-03-29T06:36:15.003Z,29.27
2018-03-29T06:41:17.830Z,34.47
2018-03-29T06:46:20.696Z,30.53
2018-03-29T06:51:23.528Z,22.83
2018-03-29T06:56:26.368Z,18.03
2018-03-29T07:01:29.206Z,32.47
2018-03-29T07:06:32.070Z,24.13
2018-03-29T07:11:34.903Z,26.10
2018-03-29T07:16:37.707Z,22.53
2018-03-29T07:21:41.050Z,24.90
2018-03-29T07:26:43.823Z,21.30
2018-03-29T07:31:47.048Z,28.27
2018-03-29T07:36:49.861Z,30.53
2018-03-29T07:41:52.648Z,20.23
2018-03-29T07:46:55.465Z,34.93
2018-03-29T07:51:58.268Z,24.90
2018-03-29T07:57:01.071Z,26.27
2018-03-29T08:02:03.878Z,30.23
2018-03-29T08:07:12.889Z,26.30
2018-03-29T08:12:16.580Z,26.07
2018-03-29T08:17:19.488Z,31.77
2018-03-29T08:22:22.487Z,23.00
2018-03-29T08:27:25.334Z,29.90
2018-03-29T08:32:28.174Z,28.13
2018-03-29T08:37:31.323Z,30.30
2018-03-29T08:42:34.442Z,33.97
2018-03-29T08:47:37.301Z,28.70
2018-03-29T08:52:41.040Z,28.30
2018-03-29T08:57:43.877Z,32.03
2018-03-29T09:02:46.799Z,30.23
2018-03-29T09:07:49.645Z,29.40
2018-03-29T09:12:52.469Z,42.20
2018-03-29T09:17:55.914Z,29.27
2018-03-29T09:22:58.786Z,44.17
2018-03-29T09:28:01.576Z,35.47
2018-03-29T09:33:04.363Z,29.07
2018-03-29T09:38:07.289Z,35.73
2018-03-29T09:43:10.429Z,34.83
2018-03-29T09:48:13.268Z,36.70
2018-03-29T09:53:16.272Z,35.13
2018-03-29T09:58:19.075Z,37.17
2018-03-29T10:03:22.080Z,30.80
2018-03-29T10:08:25.156Z,27.87
2018-03-29T10:13:27.974Z,37.30
2018-03-29T10:18:30.799Z,24.17
2018-03-29T10:23:33.647Z,28.40
2018-03-29T10:28:36.422Z,28.13
2018-03-29T10:33:39.475Z,16.50
2018-03-29T10:38:42.370Z,23.03
2018-03-29T10:43:45.158Z,23.50
2018-03-29T10:48:47.984Z,21.07
2018-03-29T10:53:51.294Z,30.87
2018-03-29T10:58:54.093Z,23.03
2018-03-29T11:03:56.899Z,15.03
2018-03-29T11:08:59.723Z,16.20
2018-03-29T11:14:02.534Z,14.00
2018-03-29T11:19:05.382Z,18.43
2018-03-29T11:24:08.819Z,22.13
2018-03-29T11:29:11.629Z,25.70
2018-03-29T11:34:14.456Z,29.10
2018-03-29T11:39:16.976Z,25.33
2018-03-29T11:44:19.749Z,22.50
2018-03-29T11:49:22.577Z,25.43
2018-03-29T11:54:25.662Z,28.90
2018-03-29T11:59:29.297Z,26.93
2018-03-29T12:04:32.192Z,22.63
2018-03-29T12:09:39.810Z,23.27
2018-03-29T12:14:43.648Z,19.07
2018-03-29T12:19:46.484Z,22.50
2018-03-29T12:24:49.341Z,26.90
2018-03-29T12:29:52.169Z,71.10
2018-03-29T12:34:55.011Z,20.50
2018-03-29T12:39:57.926Z,16.27
2018-03-29T12:45:00.768Z,24.93
2018-03-29T12:50:03.668Z,27.10
2018-03-29T12:55:17.792Z,34.23
2018-03-29T13:00:20.574Z,22.63
2018-03-29T13:05:23.391Z,23.87
2018-03-29T13:10:26.226Z,21.37
2018-03-29T13:15:29.053Z,17.27
2018-03-29T13:20:31.920Z,16.80
2018-03-29T13:25:34.751Z,22.47
2018-03-29T13:30:37.686Z,23.53
2018-03-29T13:35:40.561Z,18.07
2018-03-29T13:40:43.390Z,21.37
2018-03-29T13:45:46.192Z,22.43
2018-03-29T13:50:49.791Z,23.40
2018-03-29T13:55:52.785Z,12.43
2018-03-29T14:00:55.610Z,16.43
2018-03-29T14:05:58.809Z,13.57
2018-03-29T14:11:01.654Z,13.73
2018-03-29T14:16:04.503Z,10.83
2018-03-29T14:21:07.323Z,9.73
2018-03-29T14:26:10.118Z,17.60
2018-03-29T14:31:12.914Z,13.10
2018-03-29T14:36:15.713Z,8.73
2018-03-29T14:41:18.496Z,12.07
2018-03-29T14:46:21.254Z,12.10
2018-03-29T14:51:24.128Z,15.77
2018-03-29T14:56:27.564Z,15.00
2018-03-29T15:01:30.446Z,13.97
2018-03-29T15:06:33.332Z,12.53
2018-03-29T15:11:36.187Z,13.00
2018-03-29T15:16:39.095Z,15.03
2018-03-29T15:21:42.051Z,17.80
2018-03-29T15:26:45.124Z,16.93
2018-03-29T15:31:48.060Z,15.03
2018-03-29T15:36:50.867Z,11.20
2018-03-29T15:41:53.745Z,19.20
2018-03-29T15:46:56.656Z,23.20
2018-03-29T15:51:59.549Z,15.50
2018-03-29T15:57:02.554Z,16.47
2018-03-29T16:02:05.450Z,14.20
2018-03-29T16:07:08.389Z,16.60
2018-03-29T16:12:11.236Z,17.23
2018-03-29T16:17:14.266Z,22.90
2018-03-29T16:22:17.343Z,18.50
2018-03-29T16:27:22.199Z,20.47
2018-03-29T16:32:25.364Z,11.80
2018-03-29T16:37:29.392Z,16.13
2018-03-29T16:42:34.141Z,14.10
2018-03-29T16:47:37.382Z,12.10
2018-03-29T16:52:40.434Z,12.60
2018-03-29T16:57:43.610Z,13.67
2018-03-29T17:02:46.837Z,16.50
2018-03-29T17:07:49.911Z,11.30
2018-03-29T17:12:52.888Z,14.90
2018-03-29T17:17:55.918Z,19.63
2018-03-29T17:22:59.029Z,13.90
2018-03-29T17:28:02.108Z,18.40
2018-03-29T17:33:05.017Z,26.80
2018-03-29T17:38:08.806Z,11.67
2018-03-29T17:43:11.913Z,12.50
2018-03-29T17:48:14.916Z,7.83
2018-03-29T17:53:17.931Z,17.03
2018-03-29T17:58:21.180Z,11.23
2018-03-29T18:03:24.279Z,14.93
2018-03-29T18:08:27.350Z,12.37
2018-03-29T18:13:30.415Z,13.00
2018-03-29T18:18:37.835Z,17.93
2018-03-29T18:23:40.946Z,11.70
2018-03-29T18:28:44.086Z,14.10
2018-03-29T18:33:47.170Z,15.53
2018-03-29T18:38:50.269Z,13.53
2018-03-29T18:43:53.362Z,10.13
2018-03-29T18:48:56.460Z,17.27
2018-03-29T18:53:59.531Z,12.27
2018-03-29T18:59:02.763Z,15.33
2018-03-29T19:04:05.837Z,12.50
2018-03-29T19:09:09.647Z,9.53
2018-03-29T19:14:12.714Z,12.73
2018-03-29T19:19:15.821Z,15.90
2018-03-29T19:24:19.544Z,13.60
2018-03-29T19:29:23.170Z,16.37
2018-03-29T19:34:26.367Z,13.70
2018-03-29T19:39:29.656Z,16.63
2018-03-29T19:44:33.164Z,10.70
2018-03-29T19:49:36.388Z,11.37
2018-03-29T19:54:39.467Z,14.93
2018-03-29T19:59:42.605Z,9.27
2018-03-29T20:04:45.674Z,12.23
2018-03-29T20:09:48.915Z,17.70
2018-03-29T20:14:52.611Z,10.00
2018-03-29T20:19:55.817Z,8.43
2018-03-29T20:24:59.630Z,13.80
2018-03-29T20:30:02.765Z,12.87
2018-03-29T20:35:06.590Z,21.00
2018-03-29T20:40:09.679Z,7.80
2018-03-29T20:45:13.109Z,9.20
2018-03-29T20:50:16.099Z,12.40
2018-03-29T20:55:19.141Z,10.80
2018-03-29T21:00:23.095Z,9.67
2018-03-29T21:05:33.337Z,35.73
2018-03-29T21:10:37.997Z,17.83
2018-03-29T21:15:41.351Z,17.40
2018-03-29T21:20:44.686Z,13.83
2018-03-29T21:25:47.772Z,7.53
2018-03-29T21:30:50.956Z,18.57
2018-03-29T21:35:53.887Z,17.93
2018-03-29T21:40:57.217Z,11.30
2018-03-29T21:46:00.609Z,10.83
2018-03-29T21:51:03.506Z,11.40
2018-03-29T21:56:06.525Z,10.70
2018-03-29T22:01:10.099Z,13.93
2018-03-29T22:06:13.162Z,10.67
2018-03-29T22:11:16.350Z,10.37
2018-03-29T22:16:23.547Z,5.97
2018-03-29T22:21:26.654Z,9.63
2018-03-29T22:26:29.670Z,11.50
2018-03-29T22:31:33.719Z,10.97
2018-03-29T22:36:36.845Z,21.27
2018-03-29T22:41:39.986Z,10.63
2018-03-29T22:46:43.909Z,10.00
2018-03-29T22:51:47.069Z,7.60
2018-03-29T22:56:49.953Z,6.00
2018-03-29T23:01:53.104Z,5.67
2018-03-29T23:06:56.091Z,5.90
2018-03-29T23:11:59.401Z,33.53
2018-03-29T23:17:02.583Z,21.50
2018-03-29T23:22:05.850Z,34.77
2018-03-29T23:27:09.783Z,17.17
2018-03-29T23:32:13.546Z,11.43
2018-03-29T23:37:16.761Z,6.63
2018-03-29T23:42:20.088Z,8.23
2018-03-29T23:47:24.097Z,7.70
2018-03-29T23:52:26.906Z,8.10
2018-03-29T23:57:29.982Z,6.47
